KACJ Airport (Jimmy Carter Rgnl) Information

FAA: ACJ - ICAO: KACJ

KACJ Airport Location

State Georgia
County Sumter
City Americus
KACJ Airport is 4 miles northeast of Americus, GA.
Latitude 32-06-38.9000N
Longitude 084-11-19.9000W
Elevation 468ft

KACJ Airport METARs

METAR KACJ 161935Z AUTO 10004KT BKN008 BKN012 OVC034 26/23 A3001 RMK AO2 LTG DSNT SW PWINO
Altimeter 30.01"
Temperature 26.0°C (78.8°F)
Wind 100° at 4KT
Clouds broken at 800ft broken at 1,200ft overcast at 3,400ft
Visibility mi
Time observed: 2021-09-16T19:35:00Z

KACJ Airport Details

Status Operational
Activation March 1941
Ownership Public
Usage Public
Chart ATLANTA
ATC on-site No
Beacon schedule sunset-sunrise
Beacon color clear green

KACJ Airport Contacts

Owner SUMTER COUNTY
Owner address PO BOX 295, PO BOX 944, AMERICUS, GA 31709
Owner phone (229) 928-4500
Manager MIKE WILLIAMS
Manager address 2076 WEST PARK PLACE, STONE MOUNTAIN, GA 30087
Manager phone 404-372-1054

KACJ Airport (Jimmy Carter Rgnl) Radio Frequencies

KACJ (Airport) Radio Frequencies

UNICOM 122.8
Common traffic advisory frequency (CTAF) 122.8